Riverton, WY

2:13 AM MDT on August 25, 2016 (GMT -0600)
Logan Park | | Change Station

Elev 4984 ft 43.04 °N, 108.39 °W | Updated 1 second ago

Light Rain
Light Rain
48.0 °F
Feels Like 48 °F
N
3.0
Wind Variable Wind from North
Gusts 7.0 mph

Today
High -- | Low -- °F
--% Chance of Precip.
Yesterday
High -- | Low -- °F
Precip. -- in
Pressure 30.24 in
Visibility 10.0 miles
Clouds Few 4700 ft
Mostly Cloudy 7000 ft
Overcast 8500 ft
Windchill 48 °F
Dew Point 46 °F
Humidity 90%
Rainfall 0.11 in
Snow Depth Not available.
6:31 AM 7:59 PM
Waning Gibbous, 48% visible
METAR KRIW 250753Z AUTO 02007KT 10SM -RA FEW047 BKN070 OVC085 08/08 A3036 RMK AO2 SLP240 P0005 T00830078
Pressure 30.24 in
Visibility 10.0 miles
Clouds Few 4700 ft
Mostly Cloudy 7000 ft
Overcast 8500 ft
Windchill 48 °F
Dew Point 46 °F
Humidity 90%
Rainfall 0.11 in
Snow Depth Not available.
6:31 AM 7:59 PM
Waning Gibbous, 48% visible
METAR KRIW 250753Z AUTO 02007KT 10SM -RA FEW047 BKN070 OVC085 08/08 A3036 RMK AO2 SLP240 P0005 T00830078

10-Day Weather Forecast

Almanac

Astronomy

Aug. 25, 2016 Rise Set
Actual Time
Civil Twilight
Nautical Twilight
Astronomical Twilight
Moon
Length of Visible Light
Length of Day
Tomorrow will be .
, % of the Moon is Illuminated

Today's Extremes

State Highs State Lows

Community

WunderPhotos

Upload Photos

1,934,814 photos uploaded!

WunderBlog® & News

Nearby

Air Quality

  Air Quality AQ Index Pollutant
Not available.

Snow Depth

Station Depth Elevation

Earthquake Activity

City Distance Mag. Time & Date
Minimum magnitude displayed is 2.5.

Coastal Water Temperatures

Place Temperature

Stations

Nearby Weather Stations

Station Location Temp. Windchill Dew Point Humidity Wind Precip. Elev Updated Type
                   

Watches & Warnings

There are currently no watches in effect.